Time;durP1;ratioP1;P1;durP2;ratioP2;P2;SDS_P1;SDS_P2;PMS_P1;PMS_P2;Temp;Humidity;BMP_temperature;BMP_pressure;BME280_temperature;BME280_humidity;BME280_pressure;Samples;Min_cycle;Max_cycle;Signal;HPM_P1;HPM_P2
2023/10/14 00:01:27;;;;;;;7.68;2.92;;;;;;;18.17;79.46;98064.56;5055363;28;20049;-87
2023/10/14 00:03:55;;;;;;;11.93;3.20;;;;;;;18.15;79.86;98071.88;5038164;28;20056;-86
2023/10/14 00:06:24;;;;;;;6.00;2.92;;;;;;;18.13;80.02;98081.91;5054396;28;20106;-86
2023/10/14 00:09:00;;;;;;;6.60;2.70;;;;;;;18.12;80.21;98077.56;5037914;28;20085;-87
2023/10/14 00:11:35;;;;;;;10.02;3.00;;;;;;;18.10;80.17;98089.22;5037810;28;20049;-86
2023/10/14 00:14:15;;;;;;;11.93;3.30;;;;;;;18.10;80.07;98089.22;5037985;28;20056;-87
2023/10/14 00:16:52;;;;;;;6.97;2.80;;;;;;;18.09;80.38;98090.22;5055092;28;20045;-87
2023/10/14 00:19:23;;;;;;;8.88;2.65;;;;;;;18.07;80.20;98088.72;5034098;28;20462;-87
2023/10/14 00:21:50;;;;;;;11.75;3.17;;;;;;;18.06;80.25;98114.50;5035535;28;20107;-87
2023/10/14 00:24:27;;;;;;;8.30;2.88;;;;;;;18.06;80.51;98127.00;5035210;28;20049;-87
2023/10/14 00:26:55;;;;;;;6.85;2.63;;;;;;;18.05;80.80;98134.16;5033992;28;20080;-87
2023/10/14 00:29:22;;;;;;;8.88;2.65;;;;;;;18.05;80.60;98167.97;5035081;28;20129;-87
2023/10/14 00:31:52;;;;;;;5.72;1.50;;;;;;;18.02;78.89;98197.59;5035047;28;20128;-87
2023/10/14 00:34:22;;;;;;;2.35;1.27;;;;;;;17.97;77.14;98209.59;5035045;28;20057;-86
2023/10/14 00:36:49;;;;;;;2.05;0.90;;;;;;;17.89;76.62;98203.44;5033436;28;20045;-87
2023/10/14 00:39:17;;;;;;;4.80;0.98;;;;;;;17.78;76.09;98216.16;5034748;28;20049;-86
2023/10/14 00:41:52;;;;;;;0.73;0.70;;;;;;;17.63;75.91;98209.88;5034624;28;20050;-86
2023/10/14 00:44:21;;;;;;;2.45;0.90;;;;;;;17.50;75.55;98219.25;5034895;28;20059;-86
2023/10/14 00:46:50;;;;;;;2.78;0.70;;;;;;;17.37;75.45;98208.28;5034197;28;20049;-87
2023/10/14 00:49:34;;;;;;;0.90;0.57;;;;;;;17.23;75.70;98215.97;5034648;28;20456;-86
2023/10/14 00:52:10;;;;;;;1.50;0.57;;;;;;;17.07;75.33;98224.78;5033377;28;20488;-86
2023/10/14 00:59:43;;;;;;;0.93;0.47;;;;;;;16.78;76.27;98220.78;5034517;28;20050;-86
2023/10/14 01:02:10;;;;;;;0.98;0.40;;;;;;;16.69;76.63;98249.19;5034757;28;20495;-86
2023/10/14 01:04:40;;;;;;;0.80;0.45;;;;;;;16.61;77.05;98249.16;5027466;28;20177;-86
2023/10/14 01:07:13;;;;;;;1.35;0.50;;;;;;;16.56;77.14;98241.66;5013403;28;20081;-86
2023/10/14 01:15:10;;;;;;;1.15;0.43;;;;;;;16.44;77.45;98230.53;5026926;28;20045;-86
2023/10/14 01:17:36;;;;;;;1.27;0.40;;;;;;;16.41;77.55;98236.19;5018440;28;20053;-86
2023/10/14 01:22:44;;;;;;;0.30;0.30;;;;;;;16.36;77.60;98233.19;5053731;28;20059;-86
2023/10/14 01:25:15;;;;;;;0.65;0.50;;;;;;;16.34;78.02;98232.53;5023766;28;20042;-86
2023/10/14 01:27:45;;;;;;;1.27;0.60;;;;;;;16.32;78.09;98248.63;5050329;28;20603;-86
2023/10/14 01:30:20;;;;;;;0.82;0.40;;;;;;;16.31;78.15;98259.38;5047115;28;20503;-86
2023/10/14 01:37:54;;;;;;;1.45;0.50;;;;;;;16.23;76.93;98268.16;5014060;28;20096;-86
2023/10/14 01:40:40;;;;;;;0.75;0.35;;;;;;;16.20;77.31;98274.63;4996920;28;20133;-87
2023/10/14 01:43:07;;;;;;;1.40;0.50;;;;;;;16.18;77.69;98281.91;5048668;28;20053;-86
2023/10/14 01:45:43;;;;;;;1.60;0.45;;;;;;;16.14;77.89;98277.91;5053910;28;20094;-86
2023/10/14 01:50:38;;;;;;;2.10;0.63;;;;;;;16.08;77.81;98273.25;5033640;28;20133;-86
2023/10/14 01:53:10;;;;;;;0.40;0.40;;;;;;;16.06;77.91;98293.81;5033282;28;20056;-86
2023/10/14 01:55:38;;;;;;;0.60;0.32;;;;;;;16.04;77.75;98288.69;5041630;28;20049;-86
2023/10/14 01:58:10;;;;;;;1.05;0.60;;;;;;;16.01;77.81;98311.03;5032384;28;20425;-86
2023/10/14 02:00:39;;;;;;;2.03;0.57;;;;;;;15.98;77.68;98314.03;5016007;28;20050;-86
2023/10/14 02:03:09;;;;;;;0.77;0.45;;;;;;;15.95;77.52;98309.03;5034792;28;20064;-86
2023/10/14 02:05:42;;;;;;;0.32;0.32;;;;;;;15.90;77.35;98328.03;5035440;28;20060;-86
2023/10/14 02:08:16;;;;;;;0.80;0.40;;;;;;;15.87;77.64;98332.84;5053222;28;20049;-86
2023/10/14 02:10:54;;;;;;;1.45;0.57;;;;;;;15.82;77.62;98351.91;5053604;28;20053;-86
2023/10/14 02:13:21;;;;;;;1.77;0.65;;;;;;;15.79;78.05;98344.25;5035246;28;20542;-86
2023/10/14 02:15:52;;;;;;;2.85;0.90;;;;;;;15.77;77.98;98357.66;5052745;28;20483;-86
2023/10/14 02:18:21;;;;;;;1.85;0.50;;;;;;;15.74;77.94;98371.22;5052778;28;20051;-86
2023/10/14 02:20:56;;;;;;;1.25;0.90;;;;;;;15.71;77.72;98379.50;5052972;28;20396;-86
2023/10/14 02:23:26;;;;;;;2.38;0.70;;;;;;;15.72;78.06;98385.63;5043947;28;20052;-86
2023/10/14 02:26:00;;;;;;;1.10;0.77;;;;;;;15.69;78.20;98407.16;5032128;28;20056;-86
2023/10/14 02:28:40;;;;;;;3.72;1.27;;;;;;;15.67;78.31;98409.16;5015436;28;20059;-86
2023/10/14 02:31:16;;;;;;;0.95;0.60;;;;;;;15.63;78.13;98416.59;5015686;28;20088;-86
2023/10/14 02:33:47;;;;;;;4.18;0.70;;;;;;;15.60;78.00;98432.78;5047078;28;20503;-86
2023/10/14 02:36:17;;;;;;;3.17;0.75;;;;;;;15.57;77.94;98433.09;5033818;28;20458;-87
2023/10/14 02:38:45;;;;;;;3.72;0.70;;;;;;;15.57;78.46;98435.75;5015214;28;20392;-87
2023/10/14 02:41:16;;;;;;;4.43;0.95;;;;;;;15.55;78.19;98433.25;5032869;28;20053;-87
2023/10/14 02:43:48;;;;;;;3.10;1.00;;;;;;;15.53;77.99;98445.84;5023318;28;20100;-87
2023/10/14 02:46:25;;;;;;;3.00;0.90;;;;;;;15.50;77.73;98462.88;5032833;28;20063;-87
2023/10/14 02:48:54;;;;;;;3.70;1.38;;;;;;;15.51;77.95;98469.00;5032717;28;20092;-86
2023/10/14 02:51:41;;;;;;;2.58;1.00;;;;;;;15.49;77.69;98482.44;5032581;28;20057;-86
2023/10/14 02:54:15;;;;;;;7.00;1.13;;;;;;;15.47;77.79;98489.69;5014955;28;20065;-86
2023/10/14 02:59:19;;;;;;;4.80;1.63;;;;;;;15.43;78.06;98508.69;5032298;28;20060;-86
2023/10/14 03:04:40;;;;;;;3.55;1.05;;;;;;;15.40;77.61;98514.31;5032113;28;20472;-86
2023/10/14 03:07:08;;;;;;;5.05;1.40;;;;;;;15.38;77.28;98519.78;5032245;28;20049;-86
2023/10/14 03:09:35;;;;;;;5.35;1.00;;;;;;;15.37;77.81;98528.72;5014774;28;20053;-87
2023/10/14 03:12:01;;;;;;;5.55;1.13;;;;;;;15.35;77.10;98530.66;5032178;28;20060;-86
2023/10/14 03:14:29;;;;;;;4.85;1.58;;;;;;;15.33;77.81;98543.25;5032045;28;20049;-89
2023/10/14 03:16:55;;;;;;;6.40;1.33;;;;;;;15.31;77.99;98551.34;5032177;28;20068;-86
2023/10/14 03:19:25;;;;;;;4.22;1.20;;;;;;;15.33;77.98;98556.50;5032197;28;20046;-87
2023/10/14 03:22:00;;;;;;;7.60;1.20;;;;;;;15.31;77.87;98559.31;5014944;28;20100;-87
2023/10/14 03:24:30;;;;;;;5.60;1.40;;;;;;;15.30;77.29;98556.78;5014862;28;20046;-86
2023/10/14 03:27:04;;;;;;;5.85;1.05;;;;;;;15.28;76.96;98561.44;4996780;22;20047;-85
2023/10/14 03:29:31;;;;;;;7.25;1.58;;;;;;;15.24;77.07;98572.31;4973569;28;20450;-85
2023/10/14 03:31:57;;;;;;;4.55;1.30;;;;;;;15.22;76.83;98574.25;4973169;28;20576;-85
2023/10/14 03:34:30;;;;;;;5.95;1.70;;;;;;;15.20;76.57;98578.03;4973196;28;20082;-85
2023/10/14 03:37:00;;;;;;;11.18;1.30;;;;;;;15.16;76.16;98582.81;4971735;28;20047;-85
2023/10/14 03:39:46;;;;;;;4.72;1.40;;;;;;;15.11;76.40;98595.66;4971694;28;20505;-85
2023/10/14 03:42:15;;;;;;;8.95;2.08;;;;;;;15.07;76.26;98596.94;4971801;28;20054;-85
2023/10/14 03:44:42;;;;;;;8.68;1.30;;;;;;;15.03;76.42;98614.13;4971891;28;20050;-85
2023/10/14 03:47:15;;;;;;;3.88;1.17;;;;;;;14.99;76.09;98616.19;4971869;28;20070;-85
2023/10/14 03:49:43;;;;;;;13.07;2.45;;;;;;;14.95;76.19;98620.97;4973051;28;20481;-85
2023/10/14 03:52:12;;;;;;;6.47;1.58;;;;;;;14.90;75.65;98625.84;4973317;28;20051;-85
2023/10/14 03:54:41;;;;;;;8.10;1.60;;;;;;;14.84;74.58;98629.09;4972151;28;20054;-85
2023/10/14 03:57:16;;;;;;;15.82;2.05;;;;;;;14.80;75.55;98635.66;4971825;28;20061;-85
2023/10/14 03:59:46;;;;;;;7.30;1.77;;;;;;;14.74;75.39;98644.97;4973544;28;20050;-85
2023/10/14 04:02:19;;;;;;;8.25;1.98;;;;;;;14.69;75.43;98655.16;4972225;28;20055;-85
2023/10/14 04:04:46;;;;;;;8.18;1.35;;;;;;;14.62;75.01;98665.47;4973367;28;20416;-85
2023/10/14 04:07:14;;;;;;;5.97;1.48;;;;;;;14.57;75.15;98665.91;4973194;28;20055;-85
2023/10/14 04:12:32;;;;;;;5.43;1.20;;;;;;;14.45;75.30;98667.84;4973194;28;20134;-85
2023/10/14 04:15:32;;;;;;;7.38;1.58;;;;;;;14.39;75.19;98678.16;4971997;28;20066;-85
2023/10/14 04:17:55;;;;;;;5.40;1.30;;;;;;;14.32;75.53;98686.66;4972710;28;20086;-85
2023/10/14 04:20:22;;;;;;;6.07;1.70;;;;;;;14.26;75.46;98695.16;4972741;28;20576;-85
2023/10/14 04:22:53;;;;;;;6.68;2.08;;;;;;;14.21;75.54;98705.31;4975534;28;20482;-85
2023/10/14 04:25:21;;;;;;;6.28;1.80;;;;;;;14.15;75.51;98711.16;4977243;28;20469;-85
2023/10/14 04:30:21;;;;;;;7.82;2.00;;;;;;;14.03;75.40;98719.22;4996307;28;20086;-85
2023/10/14 04:33:04;;;;;;;7.68;2.00;;;;;;;13.98;75.70;98725.88;4978958;28;20050;-85
2023/10/14 04:35:32;;;;;;;6.80;1.48;;;;;;;13.92;75.79;98724.59;4978549;28;20085;-85
2023/10/14 04:38:14;;;;;;;9.43;1.92;;;;;;;13.86;76.07;98736.56;4995730;28;20493;-85
2023/10/14 04:40:45;;;;;;;13.77;2.05;;;;;;;13.83;76.06;98739.47;4978832;28;20065;-86
2023/10/14 04:43:19;;;;;;;6.30;1.67;;;;;;;13.79;76.03;98740.69;4995713;28;20584;-85
2023/10/14 04:48:59;;;;;;;7.45;2.15;;;;;;;13.70;75.94;98747.63;4962869;28;20138;-85
2023/10/14 04:51:38;;;;;;;6.45;1.70;;;;;;;13.66;75.70;98760.31;4995460;28;20054;-86
2023/10/14 04:54:09;;;;;;;7.20;2.10;;;;;;;13.64;76.00;98766.69;4970814;28;20054;-85
2023/10/14 04:56:36;;;;;;;7.97;2.15;;;;;;;13.60;76.02;98760.00;4994890;28;20050;-85
2023/10/14 04:59:05;;;;;;;7.53;1.50;;;;;;;13.57;75.93;98769.00;4995805;28;20112;-86
2023/10/14 05:01:32;;;;;;;9.85;2.00;;;;;;;13.53;76.36;98786.94;4977307;28;20448;-85
2023/10/14 05:03:59;;;;;;;10.25;1.70;;;;;;;13.51;76.37;98785.41;4995378;28;20046;-85
2023/10/14 05:06:29;;;;;;;11.52;2.20;;;;;;;13.48;76.39;98791.78;4978159;28;20051;-86
2023/10/14 05:08:56;;;;;;;5.18;1.63;;;;;;;13.45;76.39;98799.94;4995390;28;20046;-85
2023/10/14 05:11:25;;;;;;;9.75;2.55;;;;;;;13.41;76.35;98802.00;4977884;28;20050;-85
2023/10/14 05:14:09;;;;;;;14.95;2.08;;;;;;;13.38;76.71;98804.91;4977851;28;20535;-86
2023/10/14 05:16:54;;;;;;;7.82;1.52;;;;;;;13.36;76.54;98812.13;4995265;28;20050;-86
2023/10/14 05:19:35;;;;;;;11.05;2.08;;;;;;;13.38;76.84;98822.59;4977618;28;20523;-86
2023/10/14 05:22:10;;;;;;;8.90;2.20;;;;;;;13.35;76.83;98823.66;4978039;28;20065;-85
2023/10/14 05:24:39;;;;;;;11.73;2.10;;;;;;;13.36;76.88;98821.88;4995108;28;20046;-86
2023/10/14 05:27:08;;;;;;;7.53;1.60;;;;;;;13.35;77.08;98836.06;4973938;28;20078;-85
2023/10/14 05:29:35;;;;;;;12.85;1.95;;;;;;;13.33;77.09;98844.09;4974153;28;20063;-85
2023/10/14 11:05:33;;;;;;;14.23;2.80;;;;;;;16.81;68.65;99334.00;5300950;23;20095;-77
2023/10/14 11:08:05;;;;;;;11.90;2.70;;;;;;;16.83;67.09;99334.72;5009349;28;20062;-76
2023/10/14 11:10:34;;;;;;;10.02;2.20;;;;;;;16.86;67.63;99337.06;5011097;28;20104;-76
2023/10/14 11:13:01;;;;;;;10.18;2.55;;;;;;;16.90;68.37;99329.69;5011017;28;20539;-76
2023/10/14 11:15:31;;;;;;;14.80;2.45;;;;;;;16.92;67.79;99339.19;5010789;28;20104;-76
2023/10/14 11:18:00;;;;;;;13.52;2.90;;;;;;;16.94;67.26;99347.03;4993337;28;20053;-75
2023/10/14 11:20:32;;;;;;;15.05;2.33;;;;;;;16.90;64.29;99343.78;5010496;28;20062;-76
2023/10/14 11:23:00;;;;;;;7.38;1.90;;;;;;;16.88;65.65;99336.94;4991561;28;20141;-77
2023/10/14 11:25:30;;;;;;;10.10;2.25;;;;;;;16.82;65.54;99342.81;4973753;28;20061;-78
2023/10/14 11:27:57;;;;;;;9.77;1.98;;;;;;;16.84;68.49;99340.84;4991177;28;20057;-77
2023/10/14 11:30:29;;;;;;;14.20;2.42;;;;;;;16.97;69.16;99336.09;4993958;28;20050;-74
2023/10/14 11:32:59;;;;;;;10.85;2.25;;;;;;;17.23;70.13;99332.09;4995433;28;20409;-75
2023/10/14 11:35:30;;;;;;;8.15;2.13;;;;;;;17.51;68.30;99340.16;4995440;28;20065;-75
2023/10/14 11:38:00;;;;;;;8.70;1.92;;;;;;;17.73;68.20;99341.66;4995146;28;20057;-74
2023/10/14 11:40:37;;;;;;;8.32;2.20;;;;;;;17.88;60.20;99339.38;4995348;28;20056;-74
2023/10/14 11:43:11;;;;;;;15.73;2.13;;;;;;;18.00;58.47;99345.34;4995104;28;20050;-75
2023/10/14 11:45:45;;;;;;;13.05;1.90;;;;;;;18.08;64.23;99333.97;4995371;28;20058;-74
2023/10/14 11:48:27;;;;;;;8.68;2.35;;;;;;;18.12;59.42;99342.53;4995072;28;20068;-75
2023/10/14 11:50:58;;;;;;;10.80;2.05;;;;;;;18.12;59.63;99332.72;4995091;28;20046;-74
2023/10/14 11:53:30;;;;;;;8.35;1.60;;;;;;;18.03;60.24;99337.06;4994951;28;20046;-74
2023/10/14 11:55:58;;;;;;;12.18;2.30;;;;;;;17.93;61.01;99339.78;4995130;28;20057;-75
2023/10/14 11:58:32;;;;;;;7.57;1.83;;;;;;;17.91;62.07;99341.72;5007328;28;20456;-74
2023/10/14 12:01:00;;;;;;;11.60;2.50;;;;;;;18.12;67.38;99339.88;5014621;28;20050;-76
2023/10/14 12:03:26;;;;;;;10.25;2.15;;;;;;;18.50;69.61;99337.97;5014348;28;20409;-75
2023/10/14 12:05:58;;;;;;;11.93;2.67;;;;;;;19.03;70.49;99324.84;5013841;28;20054;-75
2023/10/14 12:08:26;;;;;;;12.40;2.60;;;;;;;19.62;69.28;99320.81;5014177;28;20108;-75
2023/10/14 12:10:53;;;;;;;7.55;2.03;;;;;;;20.12;66.68;99326.44;5014140;28;20092;-76
2023/10/14 12:13:20;;;;;;;9.25;1.98;;;;;;;20.55;65.98;99331.75;5014176;28;20058;-76
2023/10/14 12:16:05;;;;;;;8.00;2.13;;;;;;;20.95;64.87;99338.22;5012953;28;20054;-75
2023/10/14 12:18:35;;;;;;;7.95;1.92;;;;;;;21.20;61.99;99340.88;4996168;28;20486;-74
2023/10/14 12:21:03;;;;;;;9.40;1.92;;;;;;;21.46;63.62;99331.03;5013359;28;20049;-75
2023/10/14 12:23:33;;;;;;;6.57;2.00;;;;;;;21.82;65.40;99327.97;4994752;28;20109;-75
2023/10/14 12:26:01;;;;;;;10.10;2.03;;;;;;;22.30;66.34;99324.44;5001676;28;20456;-75
2023/10/14 12:28:33;;;;;;;5.90;1.60;;;;;;;22.75;62.18;99315.81;5013813;28;20402;-75
2023/10/14 12:31:09;;;;;;;7.07;1.80;;;;;;;23.07;58.52;99339.91;5011859;28;20077;-75
2023/10/14 12:33:38;;;;;;;9.77;2.47;;;;;;;23.17;56.24;99348.53;4983818;28;20050;-75
2023/10/14 12:36:10;;;;;;;6.38;1.90;;;;;;;23.01;54.13;99362.94;4994208;28;20054;-76
2023/10/14 12:38:42;;;;;;;5.00;1.07;;;;;;;22.69;52.03;99364.84;5001040;28;20050;-74
2023/10/14 12:41:13;;;;;;;3.90;0.95;;;;;;;22.22;50.91;99354.81;5012506;28;20057;-74
2023/10/14 12:43:43;;;;;;;5.93;1.15;;;;;;;21.59;48.52;99350.06;5009574;28;20461;-76
2023/10/14 12:46:14;;;;;;;1.98;0.85;;;;;;;21.01;49.16;99362.63;5013490;28;20057;-76
2023/10/14 12:48:45;;;;;;;5.20;1.10;;;;;;;20.48;52.38;99365.50;5003693;28;20065;-74
2023/10/14 12:51:17;;;;;;;2.30;0.90;;;;;;;19.93;52.58;99366.53;5007093;28;20066;-74
2023/10/14 12:53:48;;;;;;;3.67;1.10;;;;;;;19.49;53.50;99366.59;4993629;28;20057;-74
2023/10/14 12:56:22;;;;;;;4.25;1.38;;;;;;;19.04;52.45;99376.34;5007752;28;20061;-75
2023/10/14 12:58:49;;;;;;;4.88;1.30;;;;;;;18.71;55.07;99364.38;5013466;28;20119;-75
2023/10/14 13:01:17;;;;;;;6.15;1.42;;;;;;;18.41;54.56;99373.50;5013102;28;20065;-74
2023/10/14 13:04:04;;;;;;;7.47;1.42;;;;;;;18.16;55.64;99384.69;5013021;28;20491;-75
2023/10/14 13:06:30;;;;;;;5.82;1.27;;;;;;;17.88;56.37;99381.13;5013116;28;20054;-74
2023/10/14 13:08:59;;;;;;;5.90;1.92;;;;;;;17.67;57.25;99379.47;5000706;28;20058;-74
2023/10/14 13:11:29;;;;;;;6.88;1.92;;;;;;;17.52;58.26;99387.06;5000101;28;20050;-75
2023/10/14 13:13:57;;;;;;;5.43;1.40;;;;;;;17.41;58.70;99398.69;5003905;28;20477;-75
2023/10/14 13:16:26;;;;;;;7.60;1.60;;;;;;;17.36;59.35;99404.47;5001572;28;20042;-74
2023/10/14 13:18:58;;;;;;;9.15;1.90;;;;;;;17.35;60.62;99394.81;5012304;28;20050;-75
2023/10/14 13:21:31;;;;;;;7.22;1.70;;;;;;;17.38;61.04;99396.34;5013190;28;20042;-74
2023/10/14 13:24:04;;;;;;;14.20;1.70;;;;;;;17.44;61.40;99401.09;5013217;28;20053;-74
2023/10/14 13:26:31;;;;;;;4.88;1.30;;;;;;;17.48;60.93;99402.47;5012571;28;20060;-74
2023/10/14 13:28:57;;;;;;;9.32;1.77;;;;;;;17.50;60.54;99394.38;5012676;28;20042;-73
2023/10/14 13:31:24;;;;;;;8.20;1.63;;;;;;;17.48;59.86;99393.66;4995169;28;20685;-73
2023/10/14 13:33:52;;;;;;;6.60;1.73;;;;;;;17.41;59.02;99390.72;5012722;28;20042;-74
2023/10/14 13:36:23;;;;;;;6.90;1.80;;;;;;;17.33;58.95;99402.06;5012593;28;20049;-74
2023/10/14 13:38:50;;;;;;;7.63;1.50;;;;;;;17.24;59.18;99394.94;5012758;28;20060;-74
2023/10/14 13:41:17;;;;;;;7.68;2.00;;;;;;;17.14;58.65;99405.56;5012632;28;20482;-73
2023/10/14 13:43:45;;;;;;;7.03;1.90;;;;;;;17.04;59.07;99403.75;5012514;28;20118;-73
2023/10/14 13:46:12;;;;;;;8.25;2.03;;;;;;;16.97;59.34;99409.72;5012441;28;20409;-74
2023/10/14 13:48:39;;;;;;;9.07;1.67;;;;;;;16.88;58.95;99400.75;5012252;28;20133;-73
2023/10/14 13:51:05;;;;;;;9.32;2.10;;;;;;;16.83;59.87;99418.91;4995109;28;20050;-74
2023/10/14 13:53:35;;;;;;;10.85;2.03;;;;;;;16.79;60.05;99407.72;5011407;28;20054;-74
2023/10/14 13:56:10;;;;;;;5.85;1.80;;;;;;;16.78;59.70;99408.69;5012397;28;20050;-73
2023/10/14 13:58:36;;;;;;;5.75;1.40;;;;;;;16.83;61.46;99418.91;5012415;28;20050;-74
2023/10/14 14:01:07;;;;;;;6.72;1.75;;;;;;;16.99;59.92;99421.91;5012289;28;20103;-74
2023/10/14 14:03:36;;;;;;;7.85;1.90;;;;;;;17.27;63.96;99424.75;5012441;28;20104;-74
2023/10/14 14:06:07;;;;;;;6.95;1.67;;;;;;;17.61;61.28;99427.97;5012293;28;20108;-74
2023/10/14 14:08:33;;;;;;;7.05;1.60;;;;;;;17.94;63.85;99434.63;5012054;28;20041;-74
2023/10/14 14:11:03;;;;;;;7.07;1.42;;;;;;;18.25;63.16;99441.59;5012078;28;20045;-73
2023/10/14 14:13:31;;;;;;;7.95;1.80;;;;;;;18.54;62.24;99450.47;5012172;28;20484;-73
2023/10/14 14:16:00;;;;;;;8.98;1.27;;;;;;;18.82;62.96;99453.13;5011992;28;20054;-74
2023/10/14 14:18:27;;;;;;;4.97;1.23;;;;;;;19.13;62.17;99445.69;5011809;28;20080;-73
2023/10/14 14:20:54;;;;;;;6.28;1.55;;;;;;;19.37;60.56;99462.09;5011899;28;20172;-74
2023/10/14 14:23:21;;;;;;;4.82;1.42;;;;;;;19.51;58.86;99458.06;5011875;28;20119;-74
2023/10/14 14:25:49;;;;;;;5.95;1.40;;;;;;;19.54;57.43;99447.03;5012019;28;20049;-73
2023/10/14 14:28:17;;;;;;;5.93;1.35;;;;;;;19.47;56.96;99446.81;5011840;28;20050;-74
2023/10/14 14:30:49;;;;;;;5.35;1.60;;;;;;;19.36;56.86;99461.25;5011912;28;20050;-75
2023/10/14 14:33:19;;;;;;;3.83;1.70;;;;;;;19.21;56.38;99479.59;5011823;28;20448;-75
2023/10/14 14:35:49;;;;;;;8.95;1.83;;;;;;;18.99;56.69;99499.53;5007498;28;20296;-75
2023/10/14 14:38:23;;;;;;;6.35;1.50;;;;;;;18.69;55.92;99520.97;5010912;28;20061;-74
2023/10/14 14:41:03;;;;;;;4.43;1.50;;;;;;;18.27;55.62;99514.22;5010589;28;20140;-75
2023/10/14 14:43:30;;;;;;;4.53;1.42;;;;;;;17.83;55.18;99493.38;4994169;28;20042;-74
2023/10/14 14:45:57;;;;;;;4.65;1.55;;;;;;;17.35;56.32;99497.72;5011499;28;20050;-75
2023/10/14 14:48:24;;;;;;;5.97;1.25;;;;;;;16.90;57.06;99531.72;5011220;28;20108;-74
2023/10/14 14:50:50;;;;;;;6.15;1.52;;;;;;;16.44;57.29;99516.13;5011502;28;20489;-74
2023/10/14 14:53:20;;;;;;;7.53;1.55;;;;;;;16.01;58.07;99510.00;4994524;28;20042;-75
2023/10/14 14:55:46;;;;;;;6.07;1.65;;;;;;;15.62;58.91;99486.59;5011500;28;20053;-74
2023/10/14 14:58:14;;;;;;;5.32;1.63;;;;;;;15.29;59.76;99491.06;5011175;28;20133;-74
2023/10/14 15:00:42;;;;;;;2.25;0.82;;;;;;;14.98;60.24;99487.28;5011076;28;20551;-74
2023/10/14 15:03:11;;;;;;;3.58;0.90;;;;;;;14.73;60.81;99504.25;5011216;28;20446;-74
2023/10/14 15:05:42;;;;;;;5.63;1.25;;;;;;;14.54;61.11;99518.94;5006579;28;20041;-74
2023/10/14 15:08:13;;;;;;;4.60;1.05;;;;;;;14.36;61.72;99523.00;5001998;28;20071;-73
2023/10/14 15:10:47;;;;;;;2.83;1.20;;;;;;;14.22;62.26;99537.28;4999482;28;20057;-75
2023/10/14 15:13:16;;;;;;;4.22;1.25;;;;;;;14.11;63.03;99538.97;4986244;28;20050;-74
2023/10/14 15:15:49;;;;;;;4.35;1.13;;;;;;;14.05;63.67;99531.47;4976577;28;20345;-75
2023/10/14 15:18:18;;;;;;;6.80;1.37;;;;;;;14.04;64.17;99540.38;4987138;28;20073;-76
2023/10/14 15:20:45;;;;;;;3.63;0.95;;;;;;;14.04;64.51;99541.22;4988707;28;21182;-74
2023/10/14 15:23:14;;;;;;;4.45;1.15;;;;;;;14.06;64.72;99536.66;4989360;28;20597;-75
2023/10/14 15:28:20;;;;;;;4.18;0.93;;;;;;;14.13;65.41;99539.66;4948409;29;20059;-78
2023/10/14 15:30:47;;;;;;;5.10;0.95;;;;;;;14.16;65.33;99534.16;4951919;29;20479;-77
2023/10/14 15:33:14;;;;;;;4.88;1.08;;;;;;;14.21;65.38;99539.13;4916468;29;20058;-80
2023/10/14 15:35:41;;;;;;;4.78;1.15;;;;;;;14.22;65.04;99532.84;4916777;29;20142;-79
2023/10/14 15:38:08;;;;;;;4.18;1.27;;;;;;;14.23;65.32;99529.22;4941418;29;20044;-77
2023/10/14 15:40:35;;;;;;;5.07;1.88;;;;;;;14.23;65.22;99523.94;4933563;29;20115;-77
2023/10/14 15:43:06;;;;;;;6.15;1.55;;;;;;;14.24;65.43;99535.38;4951398;29;20098;-79
2023/10/14 15:45:36;;;;;;;4.97;1.50;;;;;;;14.22;64.58;99532.84;4952158;29;20566;-80
2023/10/14 15:48:11;;;;;;;2.92;1.33;;;;;;;14.22;64.74;99542.59;4935795;29;20051;-79
2023/10/14 15:50:42;;;;;;;7.47;1.58;;;;;;;14.21;64.68;99533.81;4933339;29;20079;-82
2023/10/14 15:53:11;;;;;;;8.32;1.55;;;;;;;14.17;64.70;99535.00;4933334;29;20121;-76
2023/10/14 15:55:38;;;;;;;7.50;1.52;;;;;;;14.12;64.65;99529.19;4934307;29;20493;-80
2023/10/14 15:58:05;;;;;;;9.10;1.60;;;;;;;14.04;64.34;99524.50;4933204;29;20090;-78
2023/10/14 16:00:35;;;;;;;4.70;1.80;;;;;;;13.99;64.65;99529.28;4934364;29;20066;-77
2023/10/14 16:03:07;;;;;;;4.80;1.52;;;;;;;13.91;64.59;99532.53;4942533;29;20043;-80
2023/10/14 16:05:37;;;;;;;8.10;1.77;;;;;;;13.84;64.62;99537.44;4951813;29;20086;-77
2023/10/14 16:08:06;;;;;;;5.38;1.40;;;;;;;13.76;64.81;99537.97;4945879;29;20052;-80
2023/10/14 16:10:39;;;;;;;9.32;1.45;;;;;;;13.70;65.05;99537.59;4946737;29;20051;-77
2023/10/14 16:13:07;;;;;;;4.43;1.48;;;;;;;13.64;65.31;99533.63;4947700;29;20051;-79
2023/10/14 16:15:35;;;;;;;7.30;1.30;;;;;;;13.58;65.32;99537.56;4944943;29;20128;-76
2023/10/14 16:18:03;;;;;;;8.25;1.95;;;;;;;13.53;65.41;99542.34;4936504;29;20052;-77
2023/10/14 16:20:30;;;;;;;7.10;1.85;;;;;;;13.47;65.57;99545.38;4936871;29;20091;-76
2023/10/14 16:23:00;;;;;;;7.32;1.65;;;;;;;13.40;65.57;99543.19;4921276;29;20071;-81
2023/10/14 16:25:27;;;;;;;7.93;2.83;;;;;;;13.36;66.02;99549.66;4936711;29;20118;-80
2023/10/14 16:27:54;;;;;;;7.80;2.20;;;;;;;13.32;66.03;99553.47;4920260;29;20063;-80
2023/10/14 16:30:27;;;;;;;8.90;1.83;;;;;;;13.27;65.60;99553.78;4936428;29;20439;-76
2023/10/14 16:32:55;;;;;;;8.27;2.30;;;;;;;13.23;66.00;99554.13;4955468;29;20514;-78
2023/10/14 16:35:26;;;;;;;10.45;2.10;;;;;;;13.18;65.76;99570.31;4955459;29;20070;-78
2023/10/14 16:37:56;;;;;;;6.50;1.67;;;;;;;13.15;66.31;99571.38;4954920;29;20106;-78
2023/10/14 16:40:26;;;;;;;6.47;1.58;;;;;;;13.11;66.20;99569.91;4950638;29;20055;-77
2023/10/14 16:42:58;;;;;;;8.80;1.80;;;;;;;13.06;65.54;99576.47;4949428;29;20066;-76
2023/10/14 16:45:28;;;;;;;3.83;1.58;;;;;;;13.03;66.47;99583.66;4936196;29;20060;-77
2023/10/14 16:47:56;;;;;;;10.73;2.22;;;;;;;12.99;66.85;99591.91;4936216;29;20056;-77
2023/10/14 16:50:26;;;;;;;7.38;2.00;;;;;;;12.95;66.86;99583.34;4920448;29;20158;-79
2023/10/14 16:52:56;;;;;;;8.38;1.98;;;;;;;12.94;67.05;99591.38;4937172;29;20143;-77
2023/10/14 16:55:24;;;;;;;7.55;2.10;;;;;;;12.90;67.01;99590.75;4935854;29;20048;-81
2023/10/14 16:57:52;;;;;;;6.05;1.73;;;;;;;12.88;67.01;99600.56;4941546;29;20047;-78
2023/10/14 17:00:21;;;;;;;9.25;1.85;;;;;;;12.84;66.91;99599.94;4953107;29;20054;-78
2023/10/14 17:02:52;;;;;;;8.93;2.22;;;;;;;12.83;66.73;99602.69;4937733;29;20055;-80
2023/10/14 17:05:23;;;;;;;9.18;1.73;;;;;;;12.80;66.88;99609.03;4947852;29;20055;-78
2023/10/14 17:07:53;;;;;;;6.25;1.80;;;;;;;12.79;66.97;99625.84;4941714;29;20110;-81
2023/10/14 17:10:25;;;;;;;12.93;1.98;;;;;;;12.78;67.42;99626.78;4937088;29;20064;-77
2023/10/14 17:12:57;;;;;;;8.37;1.87;;;;;;;12.77;67.32;99633.88;4940699;29;20048;-80
2023/10/14 17:15:27;;;;;;;10.80;2.45;;;;;;;12.79;67.16;99631.13;4947283;29;20456;-80
2023/10/14 17:17:58;;;;;;;10.38;2.50;;;;;;;12.81;67.41;99642.41;4934347;29;20051;-79
2023/10/14 17:20:26;;;;;;;5.80;1.60;;;;;;;12.84;67.18;99649.28;4936669;29;20407;-78
2023/10/14 17:22:54;;;;;;;10.07;2.08;;;;;;;12.85;66.85;99649.19;4934628;29;20062;-78
2023/10/14 17:25:22;;;;;;;10.25;2.42;;;;;;;12.86;66.34;99655.31;4936660;29;20059;-77
2023/10/14 17:27:49;;;;;;;6.32;1.60;;;;;;;12.86;66.24;99648.22;4953537;28;20094;-82
2023/10/14 17:30:16;;;;;;;7.60;1.80;;;;;;;12.85;65.92;99649.19;4953877;29;20110;-77
2023/10/14 17:32:43;;;;;;;7.43;1.75;;;;;;;12.85;65.82;99667.69;4945540;29;20074;-78
2023/10/14 17:35:13;;;;;;;7.53;1.63;;;;;;;12.83;65.19;99659.03;4944983;29;20055;-78
2023/10/14 17:37:44;;;;;;;10.30;1.80;;;;;;;12.80;65.06;99664.50;4935111;29;20058;-77
2023/10/14 17:40:15;;;;;;;9.30;1.95;;;;;;;12.75;64.82;99669.25;4935430;29;20106;-77
2023/10/14 17:42:43;;;;;;;7.68;2.17;;;;;;;12.70;64.66;99677.47;4935484;29;20115;-81
2023/10/14 17:45:14;;;;;;;8.68;2.03;;;;;;;12.64;63.06;99681.38;4952032;29;20055;-77
2023/10/14 17:47:44;;;;;;;10.68;2.13;;;;;;;12.60;63.58;99673.78;4953981;29;20110;-76
2023/10/14 17:50:21;;;;;;;9.40;2.00;;;;;;;12.56;64.50;99685.50;4954350;29;20059;-78
2023/10/14 17:52:56;;;;;;;9.27;2.40;;;;;;;12.50;64.26;99689.38;4945621;29;20066;-78
2023/10/14 17:55:25;;;;;;;8.85;1.80;;;;;;;12.46;64.58;99685.25;4934624;29;20084;-77
2023/10/14 17:57:54;;;;;;;6.68;1.92;;;;;;;12.40;64.73;99686.50;4953359;29;20135;-77